createdAt,value
2019-01-17T00:00:23.572Z,16.2
2019-01-17T00:01:04.170Z,16.17
2019-01-17T00:01:44.792Z,16.17
2019-01-17T00:02:25.400Z,16.14
2019-01-17T00:03:06.004Z,16.11
2019-01-17T00:03:46.646Z,16.15
2019-01-17T00:04:27.272Z,16.17
2019-01-17T00:05:07.880Z,16.14
2019-01-17T00:05:48.496Z,16.2
2019-01-17T00:06:29.081Z,16.11
2019-01-17T00:07:09.678Z,16.12
2019-01-17T00:07:50.271Z,16.2
2019-01-17T00:08:30.902Z,16.15
2019-01-17T00:09:11.528Z,16.17
2019-01-17T00:09:52.158Z,16.2
2019-01-17T00:10:32.762Z,16.08
2019-01-17T00:11:13.408Z,16.09
2019-01-17T00:11:54.024Z,16.2
2019-01-17T00:12:34.620Z,16.21
2019-01-17T00:13:15.286Z,16.14
2019-01-17T00:13:55.894Z,16.2
2019-01-17T00:14:36.516Z,16.15
2019-01-17T00:15:17.128Z,16.17
2019-01-17T00:15:57.772Z,16.15
2019-01-17T00:16:38.370Z,16.17
2019-01-17T00:17:18.992Z,16.15
2019-01-17T00:17:59.604Z,16.05
2019-01-17T00:18:40.194Z,16.15
2019-01-17T00:19:20.803Z,16.11
2019-01-17T00:20:01.453Z,16.11
2019-01-17T00:20:42.064Z,16.11
2019-01-17T00:21:22.666Z,16.15
2019-01-17T00:22:03.293Z,16.09
2019-01-17T00:22:43.899Z,16.09
2019-01-17T00:23:24.516Z,16.2
2019-01-17T00:24:05.111Z,16.12
2019-01-17T00:24:45.718Z,16.08
2019-01-17T00:25:26.448Z,16.09
2019-01-17T00:26:07.034Z,16.09
2019-01-17T00:26:47.648Z,16.09
2019-01-17T00:27:28.236Z,16.07
2019-01-17T00:28:08.899Z,16.07
2019-01-17T00:28:49.517Z,16.08
2019-01-17T00:29:30.166Z,16.08
2019-01-17T00:30:10.780Z,16.11
2019-01-17T00:30:51.394Z,16.12
2019-01-17T00:31:32.034Z,16.09
2019-01-17T00:32:12.638Z,16.08
2019-01-17T00:32:53.342Z,16.2
2019-01-17T00:33:33.940Z,16.09
2019-01-17T00:34:14.554Z,16.08
2019-01-17T00:34:55.152Z,16.11
2019-01-17T00:35:35.772Z,16.09
2019-01-17T00:36:16.386Z,16.09
2019-01-17T00:36:57.016Z,16.12
2019-01-17T00:37:37.636Z,16.07
2019-01-17T00:38:18.242Z,16.08
2019-01-17T00:38:58.892Z,16.08
2019-01-17T00:39:39.556Z,16.07
2019-01-17T00:40:20.168Z,16.07
2019-01-17T00:41:00.796Z,16.08
2019-01-17T00:41:41.604Z,16.09
2019-01-17T00:42:22.116Z,16.04
2019-01-17T00:43:02.751Z,16.07
2019-01-17T00:43:43.364Z,16.07
2019-01-17T00:44:23.961Z,16.04
2019-01-17T00:45:04.577Z,16.11
2019-01-17T00:45:45.260Z,16.09
2019-01-17T00:46:25.872Z,16.11
2019-01-17T00:47:06.740Z,16.08
2019-01-17T00:47:47.366Z,16.04
2019-01-17T00:48:27.972Z,16.07
2019-01-17T00:49:08.634Z,16.07
2019-01-17T00:49:49.240Z,16.04
2019-01-17T00:50:29.890Z,16.09
2019-01-17T00:51:10.520Z,16.04
2019-01-17T00:51:51.128Z,16.05
2019-01-17T00:52:31.742Z,16.07
2019-01-17T00:53:12.360Z,16.07
2019-01-17T00:53:52.966Z,16.07
2019-01-17T00:54:33.578Z,16.08
2019-01-17T00:55:14.194Z,16.01
2019-01-17T00:55:54.806Z,16.07
2019-01-17T00:56:35.440Z,16.02
2019-01-17T00:57:16.048Z,16.07
2019-01-17T00:57:56.799Z,16.09
2019-01-17T00:58:37.582Z,16.01
2019-01-17T00:59:18.194Z,16.07
2019-01-17T00:59:58.813Z,16.07
2019-01-17T01:00:39.414Z,16.07
2019-01-17T01:01:20.020Z,16.04
2019-01-17T01:02:00.623Z,16.11
2019-01-17T01:02:41.232Z,16.04
2019-01-17T01:03:21.850Z,16.07
2019-01-17T01:04:02.467Z,16.09
2019-01-17T01:04:43.090Z,16.01
2019-01-17T01:05:23.700Z,16.05
2019-01-17T01:06:04.342Z,16.05
2019-01-17T01:06:44.978Z,16.07
2019-01-17T01:07:25.588Z,16.07
2019-01-17T01:08:06.185Z,16.02
2019-01-17T01:08:46.794Z,16.04
2019-01-17T01:09:27.400Z,16.09
2019-01-17T01:10:08.145Z,16.02
2019-01-17T01:11:47.526Z,16.09
2019-01-17T01:12:28.134Z,16.09
2019-01-17T01:13:08.730Z,16.02
2019-01-17T01:13:49.337Z,16.02
2019-01-17T01:14:29.946Z,16.07
2019-01-17T01:15:10.554Z,15.96
2019-01-17T01:15:51.157Z,16.01
2019-01-17T01:16:31.764Z,16.09
2019-01-17T01:17:12.348Z,16.01
2019-01-17T01:17:53.133Z,16.08
2019-01-17T01:18:33.773Z,16.04
2019-01-17T01:19:14.382Z,16.09
2019-01-17T01:19:55.016Z,16.01
2019-01-17T01:20:35.608Z,16.01
2019-01-17T01:21:16.208Z,16.04
2019-01-17T01:21:56.818Z,16.01
2019-01-17T01:22:37.428Z,15.97
2019-01-17T01:23:18.042Z,16.02
2019-01-17T01:23:58.669Z,16.02
2019-01-17T01:24:39.280Z,16
2019-01-17T01:25:19.884Z,16.02
2019-01-17T01:26:00.535Z,15.97
2019-01-17T01:26:41.140Z,16.09
2019-01-17T01:27:21.744Z,16.01
2019-01-17T01:28:02.342Z,16.09
2019-01-17T01:28:42.946Z,15.96
2019-01-17T01:29:23.553Z,15.97
2019-01-17T01:30:04.163Z,16
2019-01-17T01:30:44.778Z,15.93
2019-01-17T01:31:25.401Z,16.04
2019-01-17T01:32:06.000Z,15.97
2019-01-17T01:32:46.610Z,15.97
2019-01-17T01:33:27.208Z,16
2019-01-17T01:34:07.816Z,16.07
2019-01-17T01:34:48.626Z,16.01
2019-01-17T01:35:29.218Z,16
2019-01-17T01:36:09.839Z,15.93
2019-01-17T01:36:50.440Z,16.02
2019-01-17T01:37:31.041Z,16.02
2019-01-17T01:38:11.640Z,15.97
2019-01-17T01:38:52.253Z,15.96
2019-01-17T01:39:32.854Z,15.97
2019-01-17T01:40:13.459Z,16.02
2019-01-17T01:40:54.071Z,16
2019-01-17T01:41:34.687Z,16.02
2019-01-17T01:42:15.318Z,15.97
2019-01-17T01:42:55.918Z,16.01
2019-01-17T01:43:36.527Z,16
2019-01-17T01:44:17.161Z,16
2019-01-17T01:44:57.770Z,16.02
2019-01-17T01:45:38.377Z,16
2019-01-17T01:46:18.983Z,15.97
2019-01-17T01:46:59.581Z,15.97
2019-01-17T01:47:40.182Z,16.04
2019-01-17T01:48:20.832Z,15.97
2019-01-17T01:49:01.448Z,16.04
2019-01-17T01:49:42.060Z,15.9
2019-01-17T01:50:22.671Z,16.02
2019-01-17T01:51:03.264Z,16.02
2019-01-17T01:51:43.875Z,16.04
2019-01-17T01:52:24.481Z,16
2019-01-17T01:53:05.122Z,16.05
2019-01-17T01:53:45.734Z,15.97
2019-01-17T01:54:26.347Z,15.97
2019-01-17T01:55:06.971Z,16.02
2019-01-17T01:55:47.584Z,15.96
2019-01-17T01:56:28.189Z,15.93
2019-01-17T01:57:08.827Z,15.92
2019-01-17T01:57:49.422Z,16
2019-01-17T01:58:30.029Z,15.94
2019-01-17T01:59:10.655Z,15.92
2019-01-17T01:59:51.278Z,15.94
2019-01-17T02:00:31.878Z,16
2019-01-17T02:01:12.480Z,16
2019-01-17T02:01:53.125Z,16.02
2019-01-17T02:02:33.719Z,16.07
2019-01-17T02:03:14.343Z,16.02
2019-01-17T02:03:54.963Z,16.01
2019-01-17T02:04:35.589Z,16
2019-01-17T02:05:16.188Z,15.97
2019-01-17T02:05:56.796Z,16.04
2019-01-17T02:06:37.400Z,15.94
2019-01-17T02:07:18.033Z,15.93
2019-01-17T02:07:58.643Z,15.97
2019-01-17T02:08:39.252Z,15.94
2019-01-17T02:09:19.855Z,15.97
2019-01-17T02:10:00.459Z,15.96
2019-01-17T02:10:41.066Z,16
2019-01-17T02:11:21.672Z,16.01
2019-01-17T02:12:02.287Z,15.97
2019-01-17T02:12:42.962Z,15.94
2019-01-17T02:13:23.545Z,16.01
2019-01-17T02:14:04.162Z,16
2019-01-17T02:14:44.765Z,15.94
2019-01-17T02:15:25.359Z,15.93
2019-01-17T02:16:06.039Z,16.02
2019-01-17T02:16:46.641Z,15.97
2019-01-17T02:17:27.250Z,15.96
2019-01-17T02:18:07.843Z,15.96
2019-01-17T02:18:48.470Z,15.97
2019-01-17T02:19:29.083Z,15.96
2019-01-17T02:20:09.701Z,15.93
2019-01-17T02:20:50.311Z,15.94
2019-01-17T02:21:30.919Z,16.02
2019-01-17T02:22:11.544Z,15.97
2019-01-17T02:22:52.152Z,15.96
2019-01-17T02:23:32.755Z,15.96
2019-01-17T02:24:13.361Z,16.01
2019-01-17T02:24:53.963Z,15.96
2019-01-17T02:25:34.573Z,15.96
2019-01-17T02:26:15.185Z,15.93
2019-01-17T02:26:55.792Z,15.93
2019-01-17T02:27:36.405Z,15.93
2019-01-17T02:28:17.011Z,15.93
2019-01-17T02:28:57.627Z,15.97
2019-01-17T02:29:38.224Z,15.97
2019-01-17T02:30:18.851Z,15.9
2019-01-17T02:30:59.465Z,15.89
2019-01-17T02:31:40.083Z,15.94
2019-01-17T02:32:20.696Z,15.96
2019-01-17T02:33:01.297Z,15.89
2019-01-17T02:33:41.889Z,15.93
2019-01-17T02:34:22.489Z,15.93
2019-01-17T02:35:03.090Z,15.87
2019-01-17T02:35:43.728Z,15.86
2019-01-17T02:36:24.332Z,15.93
2019-01-17T02:37:04.951Z,15.93
2019-01-17T02:37:45.588Z,15.89
2019-01-17T02:38:26.195Z,15.92
2019-01-17T02:39:06.792Z,15.84
2019-01-17T02:39:47.405Z,15.89
2019-01-17T02:40:28.002Z,15.84
2019-01-17T02:41:08.605Z,15.86
2019-01-17T02:41:49.209Z,15.9
2019-01-17T02:42:29.812Z,15.86
2019-01-17T02:43:10.419Z,16.01
2019-01-17T02:43:51.059Z,15.92
2019-01-17T02:44:31.673Z,15.9
2019-01-17T02:45:12.290Z,15.84
2019-01-17T02:45:52.911Z,15.92
2019-01-17T02:46:33.505Z,15.83
2019-01-17T02:47:14.100Z,15.89
2019-01-17T02:47:54.706Z,15.89
2019-01-17T02:48:35.323Z,15.9
2019-01-17T02:49:15.930Z,15.89
2019-01-17T02:49:56.538Z,15.94
2019-01-17T02:50:37.147Z,15.9
2019-01-17T02:51:17.735Z,15.87
2019-01-17T02:51:58.331Z,15.86
2019-01-17T02:52:38.934Z,15.97
2019-01-17T02:53:19.544Z,15.87
2019-01-17T02:54:00.147Z,15.97
2019-01-17T02:54:40.791Z,15.94
2019-01-17T02:55:21.391Z,15.84
2019-01-17T02:56:01.995Z,15.92
2019-01-17T02:56:42.605Z,15.94
2019-01-17T02:57:23.219Z,15.9
2019-01-17T02:58:03.827Z,15.87
2019-01-17T02:58:44.459Z,15.94
2019-01-17T02:59:25.091Z,15.97
2019-01-17T03:00:05.711Z,15.92
2019-01-17T03:00:46.319Z,15.83
2019-01-17T03:01:26.949Z,15.9
2019-01-17T03:02:07.563Z,16
2019-01-17T03:02:48.184Z,15.86
2019-01-17T03:03:28.779Z,15.9
2019-01-17T03:04:09.395Z,15.87
2019-01-17T03:04:50.028Z,15.87
2019-01-17T03:05:30.642Z,15.9
2019-01-17T03:06:11.242Z,15.87
2019-01-17T03:06:51.843Z,15.87
2019-01-17T03:07:32.455Z,15.87
2019-01-17T03:08:13.088Z,15.9
2019-01-17T03:08:53.690Z,15.9
2019-01-17T03:09:34.306Z,15.94
2019-01-17T03:10:14.951Z,15.86
2019-01-17T03:10:55.560Z,15.83
2019-01-17T03:11:36.162Z,15.92
2019-01-17T03:12:16.757Z,15.84
2019-01-17T03:12:57.365Z,15.93
2019-01-17T03:13:37.966Z,15.9
2019-01-17T03:14:18.576Z,15.84
2019-01-17T03:14:59.211Z,15.93
2019-01-17T03:15:39.817Z,15.84
2019-01-17T03:16:20.427Z,15.87
2019-01-17T03:17:01.079Z,15.86
2019-01-17T03:17:41.683Z,15.9
2019-01-17T03:18:22.293Z,15.83
2019-01-17T03:19:02.885Z,15.84
2019-01-17T03:19:43.487Z,15.87
2019-01-17T03:20:24.085Z,15.86
2019-01-17T03:21:04.695Z,15.94
2019-01-17T03:21:45.289Z,15.87
2019-01-17T03:22:25.883Z,15.84
2019-01-17T03:23:06.498Z,15.93
2019-01-17T03:23:47.118Z,15.93
2019-01-17T03:24:27.743Z,15.89
2019-01-17T03:25:08.349Z,15.93
2019-01-17T03:25:48.949Z,15.94
2019-01-17T03:26:29.577Z,15.87
2019-01-17T03:27:10.194Z,15.84
2019-01-17T03:27:50.769Z,15.89
2019-01-17T03:28:31.365Z,15.89
2019-01-17T03:29:11.964Z,15.86
2019-01-17T03:29:52.565Z,15.87
2019-01-17T03:30:33.171Z,15.93
2019-01-17T03:31:13.775Z,15.84
2019-01-17T03:31:54.417Z,15.9
2019-01-17T03:32:35.061Z,15.87
2019-01-17T03:33:15.667Z,15.87
2019-01-17T03:33:56.295Z,15.84
2019-01-17T03:34:36.926Z,15.86
2019-01-17T03:35:17.532Z,15.86
2019-01-17T03:35:58.146Z,15.93
2019-01-17T03:36:38.736Z,15.89
2019-01-17T03:37:19.343Z,15.89
2019-01-17T03:37:59.982Z,15.8
2019-01-17T03:38:40.597Z,15.86
2019-01-17T03:39:21.201Z,15.8
2019-01-17T03:40:01.825Z,15.83
2019-01-17T03:40:42.435Z,15.87
2019-01-17T03:41:23.047Z,15.9
2019-01-17T03:42:03.649Z,15.89
2019-01-17T03:42:44.264Z,15.84
2019-01-17T03:43:24.874Z,15.87
2019-01-17T03:44:05.505Z,15.86
2019-01-17T03:44:46.122Z,15.84
2019-01-17T03:45:26.743Z,15.9
2019-01-17T03:46:07.351Z,15.86
2019-01-17T03:46:47.961Z,15.87
2019-01-17T03:47:28.575Z,15.89
2019-01-17T03:48:09.205Z,15.97
2019-01-17T03:48:49.809Z,15.87
2019-01-17T03:49:30.421Z,15.87
2019-01-17T03:50:11.033Z,15.89
2019-01-17T03:50:51.669Z,15.8
2019-01-17T03:51:32.279Z,15.87
2019-01-17T03:52:12.881Z,15.86
2019-01-17T03:52:53.492Z,15.86
2019-01-17T03:53:34.085Z,15.84
2019-01-17T03:54:14.693Z,15.86
2019-01-17T03:54:55.301Z,15.89
2019-01-17T03:55:35.897Z,15.9
2019-01-17T03:56:21.535Z,15.89
2019-01-17T03:56:57.111Z,15.86
2019-01-17T03:57:37.713Z,15.84
2019-01-17T03:58:18.315Z,15.86
2019-01-17T03:58:58.921Z,15.84
2019-01-17T03:59:39.515Z,15.9
2019-01-17T04:00:20.112Z,15.8
2019-01-17T04:01:00.743Z,15.83
2019-01-17T04:01:41.413Z,15.87
2019-01-17T04:02:22.043Z,15.84
2019-01-17T04:03:02.673Z,15.86
2019-01-17T04:03:43.267Z,15.9
2019-01-17T04:04:23.875Z,15.87
2019-01-17T04:05:04.480Z,15.84
2019-01-17T04:05:45.079Z,15.93
2019-01-17T04:06:25.678Z,15.87
2019-01-17T04:07:06.292Z,15.83
2019-01-17T04:07:46.913Z,15.87
2019-01-17T04:08:27.531Z,15.86
2019-01-17T04:09:08.149Z,15.86
2019-01-17T04:09:48.747Z,15.86
2019-01-17T04:10:29.332Z,15.86
2019-01-17T04:11:09.933Z,15.83
2019-01-17T04:11:50.555Z,15.83
2019-01-17T04:12:31.159Z,15.86
2019-01-17T04:13:11.777Z,15.86
2019-01-17T04:13:52.386Z,15.86
2019-01-17T04:14:33.001Z,15.87
2019-01-17T04:15:13.617Z,15.86
2019-01-17T04:15:54.216Z,15.86
2019-01-17T04:16:34.820Z,15.86
2019-01-17T04:17:15.433Z,15.84
2019-01-17T04:17:56.031Z,15.83
2019-01-17T04:18:36.641Z,15.83
2019-01-17T04:19:17.311Z,15.84
2019-01-17T04:19:57.919Z,15.86
2019-01-17T04:20:38.558Z,15.86
2019-01-17T04:21:19.189Z,15.83
2019-01-17T04:21:59.789Z,15.86
2019-01-17T04:22:40.401Z,15.83
2019-01-17T04:23:21.047Z,15.83
2019-01-17T04:24:01.661Z,15.87
2019-01-17T04:24:42.279Z,15.83
2019-01-17T04:25:22.890Z,15.84
2019-01-17T04:26:03.485Z,15.87
2019-01-17T04:26:44.109Z,15.8
2019-01-17T04:27:24.718Z,15.76
2019-01-17T04:28:05.315Z,15.78
2019-01-17T04:28:45.907Z,15.84
2019-01-17T04:29:26.507Z,15.83
2019-01-17T04:30:07.167Z,15.86
2019-01-17T04:30:47.769Z,15.82
2019-01-17T04:31:28.375Z,15.82
2019-01-17T04:32:08.959Z,15.83
2019-01-17T04:32:49.573Z,15.83
2019-01-17T04:33:30.177Z,15.82
2019-01-17T04:34:10.794Z,15.83
2019-01-17T04:34:51.405Z,15.83
2019-01-17T04:35:32.013Z,15.83
2019-01-17T04:36:12.639Z,15.83
2019-01-17T04:36:53.246Z,15.8
2019-01-17T04:37:33.871Z,15.8
2019-01-17T04:38:14.469Z,15.86
2019-01-17T04:38:55.067Z,15.83
2019-01-17T04:39:35.675Z,15.84
2019-01-17T04:40:16.289Z,15.84
2019-01-17T04:40:56.915Z,15.83
2019-01-17T04:41:37.519Z,15.86
2019-01-17T04:42:18.155Z,15.86
2019-01-17T04:42:58.765Z,15.86
2019-01-17T04:43:39.361Z,15.87
2019-01-17T04:44:19.963Z,15.84
2019-01-17T04:45:00.561Z,15.86
2019-01-17T04:45:41.173Z,15.84
2019-01-17T04:46:21.791Z,15.83
2019-01-17T04:47:02.401Z,15.76
2019-01-17T04:47:43.014Z,15.83
2019-01-17T04:48:23.637Z,15.76
2019-01-17T04:49:04.267Z,15.83
2019-01-17T04:49:44.871Z,15.82
2019-01-17T04:50:25.475Z,15.75
2019-01-17T04:51:06.095Z,15.78
2019-01-17T04:51:46.715Z,15.75
2019-01-17T04:52:27.326Z,15.76
2019-01-17T04:53:07.927Z,15.78
2019-01-17T04:53:48.575Z,15.82
2019-01-17T04:54:29.191Z,15.78
2019-01-17T04:55:09.787Z,15.78
2019-01-17T04:55:50.383Z,15.75
2019-01-17T04:56:30.976Z,15.75
2019-01-17T04:57:11.587Z,15.8
2019-01-17T04:57:52.197Z,15.82
2019-01-17T04:58:32.820Z,15.82
2019-01-17T04:59:13.467Z,15.83
2019-01-17T04:59:54.077Z,15.8
2019-01-17T05:00:34.677Z,15.75
2019-01-17T05:01:15.293Z,15.76
2019-01-17T05:01:55.895Z,15.71
2019-01-17T05:02:36.495Z,15.78
2019-01-17T05:03:17.090Z,15.71
2019-01-17T05:03:57.701Z,15.8
2019-01-17T05:04:38.310Z,15.8
2019-01-17T05:05:18.933Z,15.82
2019-01-17T05:05:59.545Z,15.82
2019-01-17T05:06:40.165Z,15.82
2019-01-17T05:07:20.773Z,15.83
2019-01-17T05:08:01.398Z,15.78
2019-01-17T05:08:42.014Z,15.82
2019-01-17T05:09:22.639Z,15.72
2019-01-17T05:10:03.259Z,15.84
2019-01-17T05:10:43.859Z,15.8
2019-01-17T05:11:24.476Z,15.78
2019-01-17T05:12:05.128Z,15.83
2019-01-17T05:12:45.747Z,15.82
2019-01-17T05:13:26.355Z,15.78
2019-01-17T05:14:06.963Z,15.72
2019-01-17T05:14:47.574Z,15.76
2019-01-17T05:15:28.198Z,15.78
2019-01-17T05:16:08.839Z,15.8
2019-01-17T05:16:49.453Z,15.78
2019-01-17T05:17:30.069Z,15.78
2019-01-17T05:18:10.691Z,15.69
2019-01-17T05:18:51.287Z,15.78
2019-01-17T05:19:31.887Z,15.83
2019-01-17T05:20:12.501Z,15.78
2019-01-17T05:20:53.115Z,15.78
2019-01-17T05:21:33.724Z,15.72
2019-01-17T05:22:14.337Z,15.78
2019-01-17T05:22:54.962Z,15.75
2019-01-17T05:23:35.573Z,15.78
2019-01-17T05:24:16.169Z,15.74
2019-01-17T05:24:56.759Z,15.75
2019-01-17T05:25:37.368Z,15.76
2019-01-17T05:26:18.001Z,15.74
2019-01-17T05:26:58.623Z,15.83
2019-01-17T05:27:39.227Z,15.8
2019-01-17T05:28:19.821Z,15.75
2019-01-17T05:29:00.463Z,15.75
2019-01-17T05:29:41.099Z,15.78
2019-01-17T05:30:21.727Z,15.71
2019-01-17T05:31:02.337Z,15.76
2019-01-17T05:31:42.952Z,15.74
2019-01-17T05:32:23.551Z,15.72
2019-01-17T05:33:04.197Z,15.78
2019-01-17T05:33:44.825Z,15.83
2019-01-17T05:34:25.441Z,15.76
2019-01-17T05:35:06.060Z,15.74
2019-01-17T05:35:46.690Z,15.71
2019-01-17T05:36:27.302Z,15.76
2019-01-17T05:37:07.889Z,15.72
2019-01-17T05:37:48.510Z,15.75
2019-01-17T05:38:29.125Z,15.75
2019-01-17T05:39:09.714Z,15.78
2019-01-17T05:39:50.334Z,15.75
2019-01-17T05:40:30.953Z,15.76
2019-01-17T05:41:11.577Z,15.76
2019-01-17T05:41:52.195Z,15.76
2019-01-17T05:42:32.813Z,15.74
2019-01-17T05:43:13.421Z,15.82
2019-01-17T05:43:54.037Z,15.75
2019-01-17T05:44:34.636Z,15.72
2019-01-17T05:45:15.245Z,15.71
2019-01-17T05:45:55.855Z,15.71
2019-01-17T05:46:36.469Z,15.78
2019-01-17T05:47:17.081Z,15.75
2019-01-17T05:47:57.692Z,15.72
2019-01-17T05:48:38.305Z,15.75
2019-01-17T05:49:18.935Z,15.71
2019-01-17T05:49:59.556Z,15.78
2019-01-17T05:50:40.163Z,15.71
2019-01-17T05:51:20.774Z,15.8
2019-01-17T05:52:01.431Z,15.71
2019-01-17T05:52:42.277Z,15.75
2019-01-17T05:53:22.924Z,15.8
2019-01-17T05:54:03.620Z,15.78
2019-01-17T05:54:44.278Z,15.78
2019-01-17T05:55:24.878Z,15.71
2019-01-17T05:56:05.563Z,15.71
2019-01-17T05:56:46.188Z,15.76
2019-01-17T05:57:26.787Z,15.76
2019-01-17T05:58:07.388Z,15.75
2019-01-17T05:58:48.205Z,15.76
2019-01-17T05:59:29.116Z,15.76
2019-01-17T06:00:09.507Z,15.8
2019-01-17T06:00:50.152Z,15.71
2019-01-17T06:01:30.758Z,15.78
2019-01-17T06:02:11.369Z,15.74
2019-01-17T06:02:52.003Z,15.76
2019-01-17T06:03:32.605Z,15.75
2019-01-17T06:04:13.207Z,15.68
2019-01-17T06:04:53.829Z,15.71
2019-01-17T06:05:34.429Z,15.75
2019-01-17T06:06:15.052Z,15.72
2019-01-17T06:06:55.670Z,15.76
2019-01-17T06:07:36.296Z,15.72
2019-01-17T06:08:16.933Z,15.69
2019-01-17T06:08:57.575Z,15.74
2019-01-17T06:09:38.181Z,15.72
2019-01-17T06:10:18.787Z,15.71
2019-01-17T06:10:59.380Z,15.82
2019-01-17T06:11:39.992Z,15.75
2019-01-17T06:12:20.603Z,15.71
2019-01-17T06:13:01.200Z,15.69
2019-01-17T06:13:41.817Z,15.71
2019-01-17T06:14:22.434Z,15.72
2019-01-17T06:15:03.049Z,15.76
2019-01-17T06:15:43.665Z,15.78
2019-01-17T06:16:24.275Z,15.75
2019-01-17T06:17:04.885Z,15.78
2019-01-17T06:17:45.531Z,15.8
2019-01-17T06:18:26.149Z,15.71
2019-01-17T06:19:06.768Z,15.75
2019-01-17T06:19:47.391Z,15.74
2019-01-17T06:20:28.001Z,15.76
2019-01-17T06:21:08.617Z,15.75
2019-01-17T06:21:49.233Z,15.69
2019-01-17T06:22:29.845Z,15.74
2019-01-17T06:23:10.456Z,15.68
2019-01-17T06:23:51.085Z,15.62
2019-01-17T06:24:31.691Z,15.74
2019-01-17T06:25:12.293Z,15.68
2019-01-17T06:25:52.905Z,15.76
2019-01-17T06:26:33.515Z,15.67
2019-01-17T06:27:14.120Z,15.75
2019-01-17T06:27:54.725Z,15.67
2019-01-17T06:28:35.344Z,15.69
2019-01-17T06:29:15.949Z,15.69
2019-01-17T06:29:56.557Z,15.78
2019-01-17T06:30:37.175Z,15.67
2019-01-17T06:31:17.789Z,15.74
2019-01-17T06:31:58.410Z,15.65
2019-01-17T06:32:39.033Z,15.75
2019-01-17T06:33:19.700Z,15.78
2019-01-17T06:34:00.315Z,15.75
2019-01-17T06:34:40.906Z,15.75
2019-01-17T06:35:21.522Z,15.75
2019-01-17T06:36:02.125Z,15.72
2019-01-17T06:36:42.723Z,15.72
2019-01-17T06:37:23.335Z,15.64
2019-01-17T06:38:03.945Z,15.74
2019-01-17T06:38:44.535Z,15.71
2019-01-17T06:39:25.194Z,15.69
2019-01-17T06:40:05.967Z,15.76
2019-01-17T06:40:46.605Z,15.67
2019-01-17T06:41:27.419Z,15.65
2019-01-17T06:42:08.037Z,15.64
2019-01-17T06:42:48.647Z,15.69
2019-01-17T06:43:29.248Z,15.75
2019-01-17T06:44:09.867Z,15.65
2019-01-17T06:44:50.485Z,15.65
2019-01-17T06:45:31.114Z,15.8
2019-01-17T06:46:11.731Z,15.71
2019-01-17T06:46:52.362Z,15.68
2019-01-17T06:47:32.973Z,15.76
2019-01-17T06:48:13.582Z,15.65
2019-01-17T06:48:54.227Z,15.69
2019-01-17T06:49:34.859Z,15.69
2019-01-17T06:50:15.545Z,15.65
2019-01-17T06:50:56.177Z,15.65
2019-01-17T06:51:36.789Z,15.74
2019-01-17T06:52:17.433Z,15.68
2019-01-17T06:52:58.055Z,15.65
2019-01-17T06:53:38.745Z,15.68
2019-01-17T06:54:19.353Z,15.65
2019-01-17T06:55:00.035Z,15.69
2019-01-17T06:55:40.663Z,15.65
2019-01-17T06:56:21.332Z,15.65
2019-01-17T06:57:01.942Z,15.76
2019-01-17T06:57:42.630Z,15.72
2019-01-17T06:58:23.442Z,15.74
2019-01-17T06:59:04.071Z,15.65
2019-01-17T06:59:44.691Z,15.72
2019-01-17T07:00:25.321Z,15.71
2019-01-17T07:01:06.101Z,15.69
2019-01-17T07:01:46.708Z,15.68
2019-01-17T07:02:27.344Z,15.74
2019-01-17T07:03:07.965Z,15.68
2019-01-17T07:03:48.715Z,15.69
2019-01-17T07:04:29.308Z,15.65
2019-01-17T07:05:09.923Z,15.68
2019-01-17T07:05:50.537Z,15.74
2019-01-17T07:06:31.131Z,15.71
2019-01-17T07:07:11.749Z,15.65
2019-01-17T07:07:52.514Z,15.68
2019-01-17T07:08:33.237Z,15.67
2019-01-17T07:09:13.841Z,15.65
2019-01-17T07:09:54.438Z,15.64
2019-01-17T07:10:35.047Z,15.72
2019-01-17T07:11:15.645Z,15.65
2019-01-17T07:11:56.237Z,15.65
2019-01-17T07:12:37.000Z,15.74
2019-01-17T07:13:17.616Z,15.64
2019-01-17T07:13:58.384Z,15.71
2019-01-17T07:14:38.993Z,15.68
2019-01-17T07:15:19.628Z,15.68
2019-01-17T07:16:00.233Z,15.75
2019-01-17T07:16:40.867Z,15.69
2019-01-17T07:17:21.532Z,15.68
2019-01-17T07:18:02.147Z,15.76
2019-01-17T07:18:42.783Z,15.69
2019-01-17T07:19:23.424Z,15.65
2019-01-17T07:20:04.110Z,15.67
2019-01-17T07:20:44.788Z,15.65
2019-01-17T07:21:25.426Z,15.65
2019-01-17T07:22:06.059Z,15.64
2019-01-17T07:22:46.797Z,15.8
2019-01-17T07:23:27.415Z,15.71
2019-01-17T07:24:08.049Z,15.64
2019-01-17T07:24:48.689Z,15.68
2019-01-17T07:25:29.538Z,15.69
2019-01-17T07:26:10.090Z,15.69
2019-01-17T07:26:50.735Z,15.72
2019-01-17T07:27:31.369Z,15.8
2019-01-17T07:28:11.980Z,15.71
2019-01-17T07:28:52.601Z,15.78
2019-01-17T07:29:33.205Z,15.69
2019-01-17T07:30:13.938Z,15.72
2019-01-17T07:30:54.501Z,15.74
2019-01-17T07:31:35.140Z,15.72
2019-01-17T07:32:15.811Z,15.74
2019-01-17T07:32:56.447Z,15.75
2019-01-17T07:33:37.047Z,15.76
2019-01-17T07:34:17.649Z,15.72
2019-01-17T07:34:58.277Z,15.67
2019-01-17T07:35:38.961Z,15.75
2019-01-17T07:36:19.632Z,15.68
2019-01-17T07:37:00.236Z,15.67
2019-01-17T07:37:40.839Z,15.69
2019-01-17T07:38:21.471Z,15.68
2019-01-17T07:39:02.059Z,15.78
2019-01-17T07:39:42.701Z,15.76
2019-01-17T07:40:23.368Z,15.78
2019-01-17T07:41:03.986Z,15.76
2019-01-17T07:41:44.645Z,15.78
2019-01-17T07:42:25.452Z,15.75
2019-01-17T07:43:06.214Z,15.76
2019-01-17T07:43:46.922Z,15.69
2019-01-17T07:44:27.539Z,15.71
2019-01-17T07:45:08.269Z,15.68
2019-01-17T07:45:48.865Z,15.75
2019-01-17T07:46:29.766Z,15.78
2019-01-17T07:47:10.242Z,15.78
2019-01-17T07:47:50.874Z,15.8
2019-01-17T07:48:31.487Z,15.69
2019-01-17T07:49:12.085Z,15.76
2019-01-17T07:49:52.697Z,15.67
2019-01-17T07:50:33.313Z,15.76
2019-01-17T07:51:13.925Z,15.76
2019-01-17T07:51:54.556Z,15.76
2019-01-17T07:52:35.172Z,15.69
2019-01-17T07:53:15.783Z,15.78
2019-01-17T07:53:56.403Z,15.69
2019-01-17T07:54:37.003Z,15.78
2019-01-17T07:55:17.626Z,15.64
2019-01-17T07:55:58.233Z,15.75
2019-01-17T07:56:38.901Z,15.68
2019-01-17T07:57:19.508Z,15.75
2019-01-17T07:58:00.131Z,15.76
2019-01-17T07:58:40.732Z,15.78
2019-01-17T07:59:21.333Z,15.8
2019-01-17T08:00:02.007Z,15.75
2019-01-17T08:00:42.739Z,15.75
2019-01-17T08:01:23.398Z,15.72
2019-01-17T08:02:04.056Z,15.72
2019-01-17T08:02:44.660Z,15.71
2019-01-17T08:03:25.269Z,15.76
2019-01-17T08:04:05.872Z,15.76
2019-01-17T08:04:46.514Z,15.75
2019-01-17T08:05:27.171Z,15.78
2019-01-17T08:06:07.800Z,15.8
2019-01-17T08:06:48.405Z,15.8
2019-01-17T08:07:29.006Z,15.71
2019-01-17T08:08:09.648Z,15.76
2019-01-17T08:08:50.246Z,15.71
2019-01-17T08:09:30.865Z,15.76
2019-01-17T08:10:11.463Z,15.67
2019-01-17T08:10:52.067Z,15.76
2019-01-17T08:11:32.681Z,15.82
2019-01-17T08:12:13.340Z,15.78
2019-01-17T08:12:53.932Z,15.75
2019-01-17T08:13:34.541Z,15.76
2019-01-17T08:14:15.151Z,15.74
2019-01-17T08:14:55.764Z,15.75
2019-01-17T08:15:36.374Z,15.74
2019-01-17T08:16:16.989Z,15.84
2019-01-17T08:16:57.607Z,15.78
2019-01-17T08:17:38.229Z,15.75
2019-01-17T08:18:19.005Z,15.74
2019-01-17T08:18:59.442Z,15.76
2019-01-17T08:19:40.050Z,15.72
2019-01-17T08:20:20.672Z,15.78
2019-01-17T08:21:01.284Z,15.78
2019-01-17T08:21:41.911Z,15.83
2019-01-17T08:22:22.538Z,15.75
2019-01-17T08:23:03.131Z,15.76
2019-01-17T08:23:43.772Z,15.74
2019-01-17T08:24:24.428Z,15.75
2019-01-17T08:25:05.033Z,15.78
2019-01-17T08:25:45.652Z,15.76
2019-01-17T08:26:26.280Z,15.78
2019-01-17T08:27:06.874Z,15.72
2019-01-17T08:27:47.514Z,15.78
2019-01-17T08:28:28.122Z,15.75
2019-01-17T08:29:08.730Z,15.8
2019-01-17T08:29:49.362Z,15.8
2019-01-17T08:30:29.986Z,15.83
2019-01-17T08:31:10.594Z,15.76
2019-01-17T08:31:51.222Z,15.83
2019-01-17T08:32:31.890Z,15.78
2019-01-17T08:33:12.496Z,15.72
2019-01-17T08:33:53.135Z,15.83
2019-01-17T08:34:33.748Z,15.87
2019-01-17T08:35:14.364Z,15.75
2019-01-17T08:35:54.958Z,15.75
2019-01-17T08:36:35.577Z,15.78
2019-01-17T08:37:16.225Z,15.76
2019-01-17T08:37:56.940Z,15.83
2019-01-17T08:38:37.620Z,15.82
2019-01-17T08:39:18.232Z,15.87
2019-01-17T08:39:58.884Z,15.78
2019-01-17T08:40:39.501Z,15.74
2019-01-17T08:41:20.118Z,15.78
2019-01-17T08:42:00.754Z,15.78
2019-01-17T08:42:41.384Z,15.75
2019-01-17T08:43:21.987Z,15.83
2019-01-17T08:44:02.586Z,15.8
2019-01-17T08:44:43.236Z,15.78
2019-01-17T08:45:23.838Z,15.75
2019-01-17T08:46:04.452Z,15.78
2019-01-17T08:46:45.060Z,15.78